DAL637 KEWR-EGKK
Flight info
| Callsign | DAL637 |
|---|---|
| Flight time | N/A |
| Altitude | 39000 |
| Route | MERIT DCT HFD DCT PUT DCT BOS DCT BRADD N261B NICSO/M084F400 DCT 48N050W 50N040W 52N030W 54N020W DCT DOGAL DCT BEXET/N0486F410 DCT NORLA DCT FONZU DCT ELRIP DCT OTMET |
| Aircraft | A359/H-SDE2E3GHIJ3J4J5LM1ORWXY/LB1D1 |
Departure
| Time | 2026-05-04 14:21 |
|---|---|
| Airport | Newark Liberty International Airport (KEWR) |
Arrival
| Time | N/A |
|---|---|
| Airport | London Gatwick Airport (EGKK) |
| Time | Latitude | Longitude | Altitude | Speed | Heading |
|---|---|---|---|---|---|
| 2026-05-04 13:47 | 40.68554 | -74.17905 | 26 ft | 0 kts | 334° |
| 2026-05-04 14:10 | 40.68553 | -74.17905 | 26 ft | 1 kts | 334° |
| 2026-05-04 14:11 | 40.68539 | -74.17894 | 31 ft | 3 kts | 327° |
| 2026-05-04 14:11 | 40.68513 | -74.17878 | 32 ft | 3 kts | 16° |
| 2026-05-04 14:11 | 40.68501 | -74.17890 | 31 ft | 3 kts | 68° |
| 2026-05-04 14:12 | 40.68494 | -74.17915 | 31 ft | 3 kts | 71° |
| 2026-05-04 14:12 | 40.68491 | -74.17930 | 31 ft | 1 kts | 66° |
| 2026-05-04 14:12 | 40.68490 | -74.17930 | 31 ft | 0 kts | 66° |
| 2026-05-04 14:15 | 40.68510 | -74.17880 | 32 ft | 13 kts | 59° |
| 2026-05-04 14:15 | 40.68636 | -74.17702 | 28 ft | 12 kts | 89° |
| 2026-05-04 14:16 | 40.68582 | -74.17476 | 32 ft | 12 kts | 76° |
| 2026-05-04 14:16 | 40.68642 | -74.17404 | 33 ft | 13 kts | 27° |
| 2026-05-04 14:17 | 40.68875 | -74.17253 | 29 ft | 24 kts | 26° |
| 2026-05-04 14:17 | 40.69045 | -74.17147 | 25 ft | 30 kts | 25° |
| 2026-05-04 14:17 | 40.69324 | -74.16971 | 26 ft | 22 kts | 26° |
| 2026-05-04 14:18 | 40.69468 | -74.16879 | 28 ft | 25 kts | 27° |
| 2026-05-04 14:18 | 40.69830 | -74.16647 | 21 ft | 33 kts | 27° |
| 2026-05-04 14:19 | 40.70007 | -74.16534 | 22 ft | 10 kts | 26° |
| 2026-05-04 14:19 | 40.70037 | -74.16515 | 23 ft | 0 kts | 27° |
| 2026-05-04 14:19 | 40.70041 | -74.16511 | 22 ft | 2 kts | 36° |
| 2026-05-04 14:19 | 40.70046 | -74.16505 | 24 ft | 0 kts | 41° |
| 2026-05-04 14:20 | 40.70057 | -74.16462 | 25 ft | 9 kts | 80° |
| 2026-05-04 14:20 | 40.70034 | -74.16396 | 24 ft | 8 kts | 150° |
| 2026-05-04 14:20 | 40.69973 | -74.16405 | 21 ft | 10 kts | 200° |
| 2026-05-04 14:21 | 40.68948 | -74.17055 | 49 ft | 159 kts | 206° |
| 2026-05-04 14:21 | 40.66882 | -74.18340 | 1892 ft | 165 kts | 208° |
| 2026-05-04 14:21 | 40.65781 | -74.18739 | 2805 ft | 165 kts | 193° |
| 2026-05-04 14:22 | 40.64602 | -74.18902 | 3139 ft | 179 kts | 192° |
| 2026-05-04 14:22 | 40.63280 | -74.19162 | 3191 ft | 202 kts | 199° |
| 2026-05-04 14:22 | 40.62076 | -74.20093 | 2973 ft | 204 kts | 230° |
| 2026-05-04 14:22 | 40.61389 | -74.21845 | 2753 ft | 228 kts | 252° |
| 2026-05-04 14:23 | 40.61556 | -74.26116 | 3276 ft | 247 kts | 287° |
| 2026-05-04 14:23 | 40.62417 | -74.28083 | 4093 ft | 251 kts | 304° |
| 2026-05-04 14:23 | 40.63734 | -74.29628 | 4832 ft | 259 kts | 323° |
| 2026-05-04 14:24 | 40.65425 | -74.30535 | 5495 ft | 269 kts | 342° |
| 2026-05-04 14:24 | 40.67330 | -74.30620 | 6138 ft | 282 kts | 4° |
| 2026-05-04 14:24 | 40.69204 | -74.29753 | 6799 ft | 292 kts | 27° |
| 2026-05-04 14:24 | 40.70741 | -74.27981 | 7457 ft | 299 kts | 51° |
| 2026-05-04 14:25 | 40.71673 | -74.25528 | 8115 ft | 303 kts | 74° |
| 2026-05-04 14:25 | 40.72388 | -74.20062 | 9402 ft | 307 kts | 81° |
| 2026-05-04 14:25 | 40.72702 | -74.17257 | 10040 ft | 309 kts | 81° |
| 2026-05-04 14:26 | 40.73031 | -74.14406 | 10402 ft | 322 kts | 81° |
| 2026-05-04 14:26 | 40.73383 | -74.11414 | 10655 ft | 338 kts | 81° |
| 2026-05-04 14:26 | 40.73756 | -74.08285 | 10899 ft | 352 kts | 81° |
| 2026-05-04 14:26 | 40.74353 | -74.05099 | 11137 ft | 365 kts | 65° |
| 2026-05-04 14:27 | 40.75591 | -74.02142 | 11397 ft | 375 kts | 54° |
| 2026-05-04 14:27 | 40.77162 | -73.99334 | 11638 ft | 385 kts | 49° |
| 2026-05-04 14:27 | 40.78900 | -73.96598 | 11986 ft | 391 kts | 47° |
| 2026-05-04 14:27 | 40.80691 | -73.93877 | 12480 ft | 394 kts | 46° |
| 2026-05-04 14:28 | 40.82492 | -73.91125 | 12990 ft | 396 kts | 47° |
| 2026-05-04 14:28 | 40.84280 | -73.88332 | 13500 ft | 399 kts | 47° |
| 2026-05-04 14:28 | 40.86036 | -73.85530 | 13935 ft | 403 kts | 48° |
| 2026-05-04 14:28 | 40.87819 | -73.82638 | 14347 ft | 407 kts | 48° |
| 2026-05-04 14:29 | 40.91388 | -73.76770 | 15219 ft | 412 kts | 48° |
| 2026-05-04 14:29 | 40.94997 | -73.70814 | 16087 ft | 417 kts | 48° |
| 2026-05-04 14:30 | 40.96824 | -73.67797 | 16491 ft | 420 kts | 48° |
| 2026-05-04 14:30 | 40.98659 | -73.64769 | 16930 ft | 423 kts | 47° |
| 2026-05-04 14:30 | 41.02338 | -73.58691 | 17784 ft | 428 kts | 47° |
| 2026-05-04 14:31 | 41.04202 | -73.55607 | 18208 ft | 430 kts | 47° |
| 2026-05-04 14:31 | 41.07957 | -73.49384 | 18958 ft | 434 kts | 47° |
| 2026-05-04 14:32 | 41.11737 | -73.43104 | 19719 ft | 437 kts | 47° |
| 2026-05-04 14:32 | 41.13638 | -73.39941 | 20117 ft | 438 kts | 47° |
| 2026-05-04 14:32 | 41.15545 | -73.36766 | 20482 ft | 440 kts | 47° |
| 2026-05-04 14:32 | 41.17455 | -73.33583 | 20848 ft | 442 kts | 47° |
| 2026-05-04 14:33 | 41.19355 | -73.30412 | 21234 ft | 444 kts | 47° |
| 2026-05-04 14:33 | 41.21284 | -73.27192 | 21545 ft | 447 kts | 48° |
| 2026-05-04 14:33 | 41.23222 | -73.23952 | 21901 ft | 448 kts | 48° |
| 2026-05-04 14:33 | 41.25166 | -73.20699 | 22269 ft | 450 kts | 48° |
| 2026-05-04 14:34 | 41.27117 | -73.17429 | 22620 ft | 452 kts | 48° |
| 2026-05-04 14:34 | 41.29076 | -73.14143 | 22995 ft | 454 kts | 48° |
| 2026-05-04 14:34 | 41.31045 | -73.10837 | 23322 ft | 456 kts | 48° |
| 2026-05-04 14:34 | 41.33021 | -73.07515 | 23649 ft | 458 kts | 48° |
| 2026-05-04 14:35 | 41.34979 | -73.04219 | 23945 ft | 460 kts | 48° |
| 2026-05-04 14:35 | 41.36971 | -73.00865 | 24203 ft | 463 kts | 48° |
| 2026-05-04 14:35 | 41.38974 | -72.97486 | 24497 ft | 465 kts | 48° |
| 2026-05-04 14:35 | 41.40981 | -72.94099 | 24791 ft | 466 kts | 48° |
| 2026-05-04 14:36 | 41.43000 | -72.90687 | 25011 ft | 470 kts | 48° |
| 2026-05-04 14:36 | 41.45029 | -72.87253 | 25308 ft | 472 kts | 48° |
| 2026-05-04 14:36 | 41.47060 | -72.83813 | 25600 ft | 474 kts | 48° |
| 2026-05-04 14:36 | 41.49105 | -72.80344 | 25896 ft | 476 kts | 48° |
| 2026-05-04 14:37 | 41.51154 | -72.76864 | 26202 ft | 478 kts | 48° |
| 2026-05-04 14:37 | 41.53209 | -72.73369 | 26521 ft | 480 kts | 48° |
| 2026-05-04 14:37 | 41.55271 | -72.69861 | 26829 ft | 482 kts | 48° |
| 2026-05-04 14:37 | 41.57344 | -72.66329 | 27135 ft | 484 kts | 48° |
| 2026-05-04 14:38 | 41.59424 | -72.62781 | 27435 ft | 486 kts | 48° |
| 2026-05-04 14:38 | 41.61512 | -72.59217 | 27736 ft | 489 kts | 49° |
| 2026-05-04 14:38 | 41.63584 | -72.55586 | 28037 ft | 493 kts | 52° |
| 2026-05-04 14:38 | 41.65467 | -72.51718 | 28380 ft | 497 kts | 54° |
| 2026-05-04 14:39 | 41.67293 | -72.47787 | 28728 ft | 499 kts | 55° |
| 2026-05-04 14:39 | 41.69079 | -72.43857 | 29025 ft | 502 kts | 56° |
| 2026-05-04 14:39 | 41.70884 | -72.39836 | 29340 ft | 505 kts | 56° |
| 2026-05-04 14:40 | 41.74507 | -72.31726 | 29963 ft | 509 kts | 56° |
| 2026-05-04 14:40 | 41.76331 | -72.27642 | 30229 ft | 511 kts | 56° |
| 2026-05-04 14:40 | 41.78162 | -72.23546 | 30451 ft | 514 kts | 56° |
| 2026-05-04 14:40 | 41.80004 | -72.19424 | 30648 ft | 517 kts | 56° |
| 2026-05-04 14:41 | 41.81857 | -72.15274 | 30880 ft | 520 kts | 56° |
| 2026-05-04 14:41 | 41.83717 | -72.11104 | 31107 ft | 523 kts | 56° |
| 2026-05-04 14:41 | 41.87455 | -72.02704 | 31636 ft | 525 kts | 56° |
| 2026-05-04 14:42 | 41.91189 | -71.94289 | 32237 ft | 525 kts | 56° |
| 2026-05-04 14:42 | 41.93057 | -71.90072 | 32513 ft | 525 kts | 57° |
| 2026-05-04 14:42 | 41.94928 | -71.85843 | 32660 ft | 528 kts | 57° |
| 2026-05-04 14:43 | 41.96819 | -71.81601 | 32952 ft | 529 kts | 56° |
| 2026-05-04 14:43 | 41.98750 | -71.77465 | 33301 ft | 527 kts | 54° |
| 2026-05-04 14:43 | 42.00732 | -71.73334 | 33621 ft | 526 kts | 54° |
| 2026-05-04 14:43 | 42.02732 | -71.69198 | 33872 ft | 527 kts | 54° |
| 2026-05-04 14:44 | 42.04723 | -71.65067 | 34102 ft | 527 kts | 54° |
| 2026-05-04 14:44 | 42.06709 | -71.60922 | 34323 ft | 527 kts | 54° |
| 2026-05-04 14:44 | 42.08690 | -71.56761 | 34533 ft | 528 kts | 54° |
| 2026-05-04 14:44 | 42.10667 | -71.52589 | 34658 ft | 530 kts | 55° |
| 2026-05-04 14:45 | 42.12648 | -71.48394 | 34806 ft | 532 kts | 55° |
| 2026-05-04 14:45 | 42.14627 | -71.44191 | 35049 ft | 531 kts | 55° |
| 2026-05-04 14:45 | 42.16603 | -71.39986 | 35283 ft | 531 kts | 55° |
| 2026-05-04 14:45 | 42.18583 | -71.35770 | 35469 ft | 531 kts | 55° |
| 2026-05-04 14:46 | 42.20564 | -71.31545 | 35648 ft | 532 kts | 55° |
| 2026-05-04 14:46 | 42.22540 | -71.27326 | 35847 ft | 532 kts | 55° |
| 2026-05-04 14:46 | 42.24513 | -71.23108 | 36052 ft | 532 kts | 55° |
| 2026-05-04 14:46 | 42.26464 | -71.18930 | 36261 ft | 533 kts | 56° |
| 2026-05-04 14:47 | 42.28464 | -71.14644 | 36507 ft | 531 kts | 56° |
| 2026-05-04 14:47 | 42.30409 | -71.10468 | 36739 ft | 531 kts | 56° |
| 2026-05-04 14:47 | 42.32377 | -71.06238 | 36946 ft | 531 kts | 56° |
| 2026-05-04 14:47 | 42.34317 | -71.01971 | 37129 ft | 533 kts | 59° |
| 2026-05-04 14:48 | 42.35907 | -70.97435 | 37258 ft | 535 kts | 68° |
| 2026-05-04 14:48 | 42.37118 | -70.92683 | 37456 ft | 535 kts | 71° |
| 2026-05-04 14:48 | 42.38232 | -70.87867 | 37648 ft | 535 kts | 72° |
| 2026-05-04 14:48 | 42.39291 | -70.83036 | 37740 ft | 537 kts | 73° |
| 2026-05-04 14:49 | 42.40318 | -70.78234 | 37972 ft | 537 kts | 73° |
| 2026-05-04 14:49 | 42.41347 | -70.73385 | 38247 ft | 535 kts | 73° |
| 2026-05-04 14:49 | 42.42375 | -70.68546 | 38378 ft | 535 kts | 73° |
| 2026-05-04 14:49 | 42.43407 | -70.63703 | 38504 ft | 535 kts | 73° |
| 2026-05-04 14:50 | 42.45453 | -70.54136 | 38705 ft | 536 kts | 73° |
| 2026-05-04 14:50 | 42.47520 | -70.44463 | 38767 ft | 539 kts | 74° |
| 2026-05-04 14:51 | 42.49561 | -70.34876 | 38870 ft | 541 kts | 74° |
| 2026-05-04 14:51 | 42.51639 | -70.25064 | 38883 ft | 540 kts | 74° |
| 2026-05-04 14:52 | 42.53705 | -70.15258 | 38884 ft | 541 kts | 74° |
| 2026-05-04 14:52 | 42.55754 | -70.05490 | 38882 ft | 542 kts | 74° |
| 2026-05-04 14:53 | 42.57809 | -69.95643 | 38884 ft | 543 kts | 74° |
| 2026-05-04 14:53 | 42.59859 | -69.85771 | 38863 ft | 543 kts | 75° |
| 2026-05-04 14:54 | 42.61901 | -69.75895 | 38888 ft | 545 kts | 75° |
| 2026-05-04 14:54 | 42.63941 | -69.65980 | 38885 ft | 545 kts | 75° |
| 2026-05-04 14:55 | 42.65975 | -69.56044 | 38883 ft | 545 kts | 75° |
| 2026-05-04 14:55 | 42.67986 | -69.46174 | 38879 ft | 546 kts | 75° |
| 2026-05-04 14:56 | 42.70008 | -69.36201 | 38882 ft | 547 kts | 75° |
| 2026-05-04 14:56 | 42.72024 | -69.26212 | 38884 ft | 546 kts | 75° |
| 2026-05-04 14:57 | 42.74008 | -69.16326 | 38879 ft | 545 kts | 75° |
| 2026-05-04 14:57 | 42.75999 | -69.06359 | 38877 ft | 546 kts | 75° |
| 2026-05-04 14:58 | 42.77985 | -68.96368 | 38884 ft | 547 kts | 75° |
| 2026-05-04 14:58 | 42.79642 | -68.87993 | 38878 ft | 546 kts | 75° |
| 2026-05-04 14:59 | 42.81931 | -68.76369 | 38880 ft | 547 kts | 75° |
| 2026-05-04 15:00 | 42.84874 | -68.61315 | 38875 ft | 548 kts | 76° |
| 2026-05-04 15:00 | 42.86824 | -68.51278 | 38877 ft | 548 kts | 76° |
| 2026-05-04 15:01 | 42.89737 | -68.36188 | 38886 ft | 549 kts | 76° |
| 2026-05-04 15:01 | 42.91670 | -68.26110 | 38882 ft | 549 kts | 76° |
| 2026-05-04 15:02 | 42.93267 | -68.17743 | 38884 ft | 548 kts | 76° |
| 2026-05-04 15:02 | 42.95495 | -68.06009 | 38882 ft | 550 kts | 76° |
| 2026-05-04 15:03 | 42.97097 | -67.97531 | 38884 ft | 550 kts | 76° |
| 2026-05-04 15:03 | 42.98991 | -67.87455 | 38880 ft | 551 kts | 76° |
| 2026-05-04 15:04 | 43.00889 | -67.77305 | 38882 ft | 550 kts | 76° |
| 2026-05-04 15:04 | 43.02774 | -67.67165 | 38880 ft | 550 kts | 76° |
| 2026-05-04 15:05 | 43.04653 | -67.57011 | 38886 ft | 550 kts | 76° |
| 2026-05-04 15:05 | 43.06519 | -67.46870 | 38880 ft | 550 kts | 76° |
| 2026-05-04 15:06 | 43.08367 | -67.36770 | 38883 ft | 550 kts | 76° |
| 2026-05-04 15:07 | 43.11138 | -67.21522 | 38872 ft | 549 kts | 77° |
| 2026-05-04 15:07 | 43.12976 | -67.11341 | 38882 ft | 551 kts | 77° |
| 2026-05-04 15:08 | 43.14936 | -67.01233 | 38886 ft | 552 kts | 70° |
| 2026-05-04 15:08 | 43.18139 | -66.91698 | 38883 ft | 551 kts | 62° |
| 2026-05-04 15:09 | 43.21666 | -66.82365 | 38884 ft | 551 kts | 61° |
| 2026-05-04 15:09 | 43.25236 | -66.73061 | 38878 ft | 551 kts | 61° |
| 2026-05-04 15:10 | 43.30533 | -66.59104 | 38877 ft | 553 kts | 62° |
| 2026-05-04 15:11 | 43.35819 | -66.45034 | 38874 ft | 552 kts | 62° |
| 2026-05-04 15:11 | 43.39330 | -66.35648 | 38871 ft | 552 kts | 62° |
| 2026-05-04 15:12 | 43.42833 | -66.26252 | 38868 ft | 552 kts | 62° |
| 2026-05-04 15:12 | 43.46329 | -66.16847 | 38867 ft | 551 kts | 62° |
| 2026-05-04 15:13 | 43.49810 | -66.07448 | 38864 ft | 551 kts | 62° |
| 2026-05-04 15:13 | 43.53286 | -65.98034 | 38864 ft | 551 kts | 62° |
| 2026-05-04 15:14 | 43.56736 | -65.88657 | 38866 ft | 551 kts | 62° |
| 2026-05-04 15:14 | 43.60197 | -65.79219 | 38864 ft | 550 kts | 62° |
| 2026-05-04 15:15 | 43.63638 | -65.69802 | 38861 ft | 550 kts | 62° |
| 2026-05-04 15:15 | 43.67075 | -65.60365 | 38847 ft | 550 kts | 62° |
| 2026-05-04 15:16 | 43.72191 | -65.46256 | 38843 ft | 549 kts | 62° |
| 2026-05-04 15:17 | 43.77313 | -65.32063 | 38863 ft | 550 kts | 63° |
| 2026-05-04 15:17 | 43.82421 | -65.17832 | 38856 ft | 549 kts | 63° |
| 2026-05-04 15:18 | 43.85800 | -65.08376 | 38843 ft | 547 kts | 63° |
| 2026-05-04 15:19 | 43.90861 | -64.94156 | 38834 ft | 547 kts | 63° |
| 2026-05-04 15:19 | 43.95885 | -64.79965 | 38832 ft | 549 kts | 63° |